Архив погоды на Остров Спафарьева

Метеограмма Остров Спафарьева
Вторник, 14 Августа
Время местн. Темп Ветер Видим Явления Облачность нижн/средн/верх Атм. давл. Влжн Точка росы ВНГО R Сост. почвы Tg s
Напр Скр Прв ур.ст ур.м изм
22:00 +13° С-В 3 - 50 км - преимущественно облачно 762 767 +0.1 86% +10.7° 1 км - - - -
19:00 +12.2° В,Ю-В 1 - более 50 км - преимущественно облачно 762 767 +0.5 90% +10.6° 1 км 1 - - -
16:00 +12.2° Ю-В 4 - 50 км небо без изменений {ливневые осадки} облачно 761 766 +0.3 90% +10.6° 300 м - - - -
13:00 +12.1° Ю-В 7 10 10 км слабый ливневый дождь облачно 761 766 +0.7 93% +11° 300 м - - - -
10:00 +12.5° В,Ю-В 3 - 50 км небо без изменений {ливневые осадки} облачно 760 765 +0.7 92% +11.2° 300 м - - - -
07:00 +11.5° В 5 - 10 км слабый ливневый дождь облачно 760 764 +1.1 93% +10.4° 300 м 0 Влажная (без луж) +11° -
04:00 +11.9° В,Ю-В 3 - более 50 км - преимущественно облачно 759 763 +0.4 92% +10.7° 300 м - - - -
01:00 +11.7° В,Ю-В 3 - 50 км - облачно 758 763 +0.5 96% +11.1° 300 м - - - -
Понедельник, 13 Августа
Время местн. Темп Ветер Видим Явления Облачность нижн/средн/верх Атм. давл. Влжн Точка росы ВНГО R Сост. почвы Tg s
Напр Скр Прв ур.ст ур.м изм
22:00 +12° В,Ю-В 3 - более 50 км - облачно 758 762 +0.9 96% +11.4° 300 м - - - -
19:00 +12.4° В,Ю-В 4 - 50 км - преимущественно облачно 757 761 +0.4 94% +11.5° 300 м 0 - - -
16:00 +12.7° Ю-В 4 - 50 км - облачно 756 761 +0.1 93% +11.6° 300 м - - - -
13:00 +12.7° Ю-В 4 - 50 км - облачно 756 761 0 92% +11.4° 300 м - - - -
10:00 +11.9° В,Ю-В 4 - более 50 км - облачно 756 761 +0.4 93% +10.8° 300 м - - - -
07:00 +11.3° В,Ю-В 4 - 50 км - облачно 756 761 0 91% +9.9° 300 м 0 Сухая (без трещин) - -
04:00 +11.8° Ю-В 3 - более 50 км - облачно 756 761 -0.2 90% +10.2° 300 м - - - -
01:00 +11.9° В,Ю-В 3 - 50 км - облачно с прояснениями 756 761 -0.2 92% +10.6° 600 м - - - -
Воскресенье, 12 Августа
Время местн. Темп Ветер Видим Явления Облачность нижн/средн/верх Атм. давл. Влжн Точка росы ВНГО R Сост. почвы Tg s
Напр Скр Прв ур.ст ур.м изм
22:00 +12.1° В 3 - более 50 км - облачно 756 761 +0.3 89% +10.3° 600 м - - - -
19:00 +12.3° Ю-В 3 - 50 км - облачно 756 761 -0.3 88% +10.4° 600 м 0 - - -
16:00 +12.6° В,Ю-В 4 - более 50 км - облачно 756 761 -0.3 86% +10.3° 600 м - - - -
13:00 +13.2° В,Ю-В 4 - более 50 км - облачно 757 761 -0.2 82% +10.2° 300 м - - - -
10:00 +12.7° В,Ю-В 4 - 50 км - облачно 757 762 +0.2 93% +11.6° 300 м - - - -
07:00 +13.2° В,Ю-В 3 - 50 км - преимущественно облачно 757 761 -0.1 91% +11.8° 300 м 0 Сухая (без трещин) - -
04:00 +12.7° В 3 - 50 км - преимущественно облачно 757 762 -0.2 92% +11.4° 300 м - - - -
01:00 +11.9° В 2 - 50 км - преимущественно облачно 757 762 +0.2 92% +10.6° 300 м - - - -
Суббота, 11 Августа
Время местн. Темп Ветер Видим Явления Облачность нижн/средн/верх Атм. давл. Влжн Точка росы ВНГО R Сост. почвы Tg s
Напр Скр Прв ур.ст ур.м изм
22:00 +12.8° В,Ю-В 2 - 50 км - облачно с прояснениями 757 761 +0.4 92% +11.5° 300 м - - - -
19:00 +13.6° Ю-В 2 - более 50 км - преимущественно облачно 756 761 +0.1 91% +12.2° 600 м 0 - - -